Time;durP1;ratioP1;P1;durP2;ratioP2;P2;SDS_P1;SDS_P2;PMS_P1;PMS_P2;Temp;Humidity;BMP_temperature;BMP_pressure;BME280_temperature;BME280_humidity;BME280_pressure;Samples;Min_cycle;Max_cycle;Signal;HPM_P1;HPM_P2
2023/01/12 00:00:04;;;;;;;;;;;20.70;38.60;;;;;;5073330;28;20015;-64
2023/01/12 00:02:32;;;;;;;;;;;20.70;38.50;;;;;;5073950;28;20289;-64
2023/01/12 00:04:59;;;;;;;;;;;20.70;38.50;;;;;;5073560;28;19967;-64
2023/01/12 00:07:27;;;;;;;;;;;20.70;38.50;;;;;;5073480;28;20440;-65
2023/01/12 00:09:54;;;;;;;;;;;20.70;38.50;;;;;;5073338;28;20102;-64
2023/01/12 00:12:21;;;;;;;;;;;20.70;38.40;;;;;;5073159;28;20366;-65
2023/01/12 00:14:52;;;;;;;;;;;20.70;38.40;;;;;;5073478;28;20011;-64
2023/01/12 00:17:18;;;;;;;;;;;20.70;38.40;;;;;;5072798;28;19920;-64
2023/01/12 00:19:45;;;;;;;;;;;20.70;38.40;;;;;;5073535;28;19924;-65
2023/01/12 00:22:13;;;;;;;;;;;20.70;38.40;;;;;;5073534;28;20016;-65
2023/01/12 00:24:42;;;;;;;;;;;20.70;38.40;;;;;;5072887;28;19920;-64
2023/01/12 00:27:11;;;;;;;;;;;20.60;38.40;;;;;;5073309;28;19927;-64
2023/01/12 00:29:38;;;;;;;;;;;20.60;38.40;;;;;;5073211;28;20004;-64
2023/01/12 00:32:05;;;;;;;;;;;20.70;38.40;;;;;;5072577;28;20014;-64
2023/01/12 00:34:32;;;;;;;;;;;20.60;38.30;;;;;;5073016;28;20332;-64
2023/01/12 00:37:00;;;;;;;;;;;20.60;38.30;;;;;;5073176;28;19921;-65
2023/01/12 00:39:27;;;;;;;;;;;20.60;38.30;;;;;;5073562;28;20295;-64
2023/01/12 00:47:27;;;;;;;;;;;20.60;38.30;;;;;;5073082;28;19968;-64
2023/01/12 00:49:54;;;;;;;;;;;20.60;38.30;;;;;;5072842;28;20360;-64
2023/01/12 00:52:21;;;;;;;;;;;20.60;38.30;;;;;;5072604;28;20376;-64
2023/01/12 00:54:57;;;;;;;;;;;20.60;38.80;;;;;;5073399;28;20322;-64
2023/01/12 00:57:24;;;;;;;;;;;20.60;38.30;;;;;;5073117;28;20371;-65
2023/01/12 00:59:53;;;;;;;;;;;20.60;38.30;;;;;;5073047;28;20023;-64
2023/01/12 01:02:22;;;;;;;;;;;20.60;38.30;;;;;;5072728;28;19920;-65
2023/01/12 01:04:49;;;;;;;;;;;20.60;38.30;;;;;;5073481;28;19927;-65
2023/01/12 01:07:17;;;;;;;;;;;20.60;38.20;;;;;;5072739;28;19924;-65
2023/01/12 01:09:44;;;;;;;;;;;20.60;38.20;;;;;;5072947;28;20272;-64
2023/01/12 01:12:11;;;;;;;;;;;20.60;38.20;;;;;;5073269;28;19920;-65
2023/01/12 01:14:38;;;;;;;;;;;20.60;38.20;;;;;;5073420;28;19970;-64
2023/01/12 01:17:05;;;;;;;;;;;20.60;38.20;;;;;;5073104;28;20027;-65
2023/01/12 01:19:32;;;;;;;;;;;20.60;38.20;;;;;;5073201;28;20003;-64
2023/01/12 01:21:59;;;;;;;;;;;20.60;38.20;;;;;;5072411;28;20340;-65
2023/01/12 01:24:26;;;;;;;;;;;20.60;38.20;;;;;;5072743;28;19979;-65
2023/01/12 01:26:53;;;;;;;;;;;20.60;38.20;;;;;;5072412;28;20019;-64
2023/01/12 01:29:20;;;;;;;;;;;20.60;38.20;;;;;;5074673;28;19960;-64
2023/01/12 01:31:48;;;;;;;;;;;20.60;38.20;;;;;;5076414;28;19975;-65
2023/01/12 01:34:15;;;;;;;;;;;20.60;38.20;;;;;;5076444;28;20427;-64
2023/01/12 01:36:42;;;;;;;;;;;20.60;38.20;;;;;;5075848;28;19920;-65
2023/01/12 01:39:09;;;;;;;;;;;20.60;38.10;;;;;;5076349;28;19920;-64
2023/01/12 01:41:36;;;;;;;;;;;20.60;38.10;;;;;;5075483;28;19924;-65
2023/01/12 01:44:05;;;;;;;;;;;20.60;38.10;;;;;;5076057;28;19955;-65
2023/01/12 01:46:39;;;;;;;;;;;20.60;38.10;;;;;;5075408;28;19974;-64
2023/01/12 01:49:26;;;;;;;;;;;20.60;38.70;;;;;;5076163;28;19930;-65
2023/01/12 01:51:55;;;;;;;;;;;20.60;38.10;;;;;;5076054;28;20364;-64
2023/01/12 01:54:22;;;;;;;;;;;20.60;38.20;;;;;;5076159;28;19960;-64
2023/01/12 01:56:54;;;;;;;;;;;20.60;38.10;;;;;;5075891;28;20031;-64
2023/01/12 01:59:23;;;;;;;;;;;20.60;38.20;;;;;;5058037;28;20407;-64
2023/01/12 02:01:50;;;;;;;;;;;20.60;38.10;;;;;;5075443;28;19920;-65
2023/01/12 02:04:17;;;;;;;;;;;20.60;38.10;;;;;;5075760;28;19966;-65
2023/01/12 02:06:44;;;;;;;;;;;20.60;38.10;;;;;;5075180;28;19920;-65
2023/01/12 02:09:16;;;;;;;;;;;20.60;38.10;;;;;;5075586;28;19964;-64
2023/01/12 02:17:38;;;;;;;;;;;20.60;38.00;;;;;;5075231;28;19925;-64
2023/01/12 02:20:25;;;;;;;;;;;20.60;38.00;;;;;;5075540;28;20011;-65
2023/01/12 02:23:08;;;;;;;;;;;20.60;38.00;;;;;;5060659;28;19920;-65
2023/01/12 02:25:50;;;;;;;;;;;20.60;38.00;;;;;;5075726;28;19958;-65
2023/01/12 02:28:37;;;;;;;;;;;20.60;38.00;;;;;;5075183;28;20000;-64
2023/01/12 02:31:24;;;;;;;;;;;20.60;37.90;;;;;;5060609;28;20007;-64
2023/01/12 02:34:00;;;;;;;;;;;20.60;38.00;;;;;;5074992;28;19920;-64
2023/01/12 02:36:47;;;;;;;;;;;20.60;38.00;;;;;;5075149;28;19926;-64
2023/01/12 02:39:23;;;;;;;;;;;20.60;37.90;;;;;;5075386;28;19975;-64
2023/01/12 02:44:59;;;;;;;;;;;20.60;37.90;;;;;;5074822;28;20003;-64
2023/01/12 02:47:33;;;;;;;;;;;20.60;37.90;;;;;;5074357;28;19920;-64
2023/01/12 02:50:02;;;;;;;;;;;20.60;37.90;;;;;;5057113;28;19927;-65
2023/01/12 02:52:31;;;;;;;;;;;20.60;37.90;;;;;;5074813;28;19920;-65
2023/01/12 02:54:59;;;;;;;;;;;20.60;37.90;;;;;;5074776;28;19977;-65
2023/01/12 02:57:26;;;;;;;;;;;20.60;37.90;;;;;;5074389;28;19926;-65
2023/01/12 02:59:54;;;;;;;;;;;20.60;37.90;;;;;;5075002;28;19927;-65
2023/01/12 03:02:23;;;;;;;;;;;20.60;37.90;;;;;;5074816;28;20403;-65
2023/01/12 03:04:50;;;;;;;;;;;20.60;37.90;;;;;;5074036;28;19920;-65
2023/01/12 03:07:30;;;;;;;;;;;20.50;37.80;;;;;;5074338;28;19920;-65
2023/01/12 03:10:07;;;;;;;;;;;20.60;37.90;;;;;;5074427;28;19924;-65
2023/01/12 03:12:35;;;;;;;;;;;20.60;37.80;;;;;;5056892;28;19925;-65
2023/01/12 03:15:05;;;;;;;;;;;20.60;37.80;;;;;;5074641;28;19966;-65
2023/01/12 03:17:37;;;;;;;;;;;20.60;37.80;;;;;;5073518;28;19921;-65
2023/01/12 03:20:14;;;;;;;;;;;20.60;37.80;;;;;;5073878;28;19924;-65
2023/01/12 03:22:41;;;;;;;;;;;20.60;37.80;;;;;;5074001;28;19920;-65
2023/01/12 03:25:10;;;;;;;;;;;20.60;37.80;;;;;;5073672;28;19924;-64
2023/01/12 03:27:38;;;;;;;;;;;20.50;37.70;;;;;;5073454;28;19989;-65
2023/01/12 03:30:07;;;;;;;;;;;20.60;37.80;;;;;;5072734;28;19920;-65
2023/01/12 03:32:34;;;;;;;;;;;20.50;37.70;;;;;;5074028;28;20467;-65
2023/01/12 03:35:01;;;;;;;;;;;20.60;37.70;;;;;;5073609;28;19920;-65
2023/01/12 03:37:33;;;;;;;;;;;20.60;37.80;;;;;;5073242;28;20353;-64
2023/01/12 03:40:03;;;;;;;;;;;20.60;37.80;;;;;;5073817;28;20003;-65
2023/01/12 03:42:46;;;;;;;;;;;20.60;37.70;;;;;;5074177;28;20019;-65
2023/01/12 03:45:33;;;;;;;;;;;20.50;37.70;;;;;;5073657;28;19966;-65
2023/01/12 03:48:20;;;;;;;;;;;20.60;37.70;;;;;;5073414;28;20022;-65
2023/01/12 03:51:07;;;;;;;;;;;20.50;37.70;;;;;;5073342;28;19920;-65
2023/01/12 03:53:34;;;;;;;;;;;20.50;37.70;;;;;;5072523;28;19971;-65
2023/01/12 03:56:03;;;;;;;;;;;20.50;37.70;;;;;;5073212;28;19971;-65
2023/01/12 03:58:33;;;;;;;;;;;20.50;37.70;;;;;;5072516;28;20392;-65
2023/01/12 04:01:01;;;;;;;;;;;20.50;37.70;;;;;;5062639;28;19951;-65
2023/01/12 04:03:28;;;;;;;;;;;20.50;37.70;;;;;;5072681;28;19920;-64
2023/01/12 04:05:55;;;;;;;;;;;20.50;37.70;;;;;;5073246;28;19920;-65
2023/01/12 04:08:22;;;;;;;;;;;20.50;37.70;;;;;;5072599;28;19920;-65
2023/01/12 04:10:49;;;;;;;;;;;20.50;37.70;;;;;;5073068;28;20011;-64
2023/01/12 04:13:16;;;;;;;;;;;20.60;37.70;;;;;;5073476;28;20003;-64
2023/01/12 04:15:43;;;;;;;;;;;20.60;37.70;;;;;;5073431;28;19920;-64
2023/01/12 04:18:10;;;;;;;;;;;20.60;37.70;;;;;;5073165;28;20326;-64
2023/01/12 04:20:38;;;;;;;;;;;20.60;37.70;;;;;;5073684;28;19920;-65
2023/01/12 04:23:06;;;;;;;;;;;20.60;37.70;;;;;;5073320;28;19963;-65
2023/01/12 04:25:33;;;;;;;;;;;20.60;37.70;;;;;;5073306;28;19956;-65
2023/01/12 04:28:01;;;;;;;;;;;20.60;37.70;;;;;;5072513;28;20010;-65
2023/01/12 04:30:29;;;;;;;;;;;20.60;37.70;;;;;;5073323;28;20006;-65
2023/01/12 04:32:57;;;;;;;;;;;20.60;37.70;;;;;;5072724;28;20375;-64
2023/01/12 04:35:24;;;;;;;;;;;20.60;37.70;;;;;;5055631;28;20011;-64
2023/01/12 04:37:51;;;;;;;;;;;20.60;37.60;;;;;;5073204;28;20022;-64
2023/01/12 04:40:18;;;;;;;;;;;20.60;37.70;;;;;;5073079;28;19920;-64
2023/01/12 04:45:37;;;;;;;;;;;20.60;37.60;;;;;;5073539;28;19920;-64
2023/01/12 04:48:06;;;;;;;;;;;20.60;37.60;;;;;;5072942;28;20382;-67
2023/01/12 04:50:33;;;;;;;;;;;20.60;37.60;;;;;;5073051;28;20024;-65
2023/01/12 04:53:01;;;;;;;;;;;20.60;37.60;;;;;;5072817;28;19925;-65
2023/01/12 04:55:28;;;;;;;;;;;20.60;37.60;;;;;;5072735;28;20474;-65
2023/01/12 04:57:56;;;;;;;;;;;20.50;37.60;;;;;;5073094;28;20375;-66
2023/01/12 05:00:23;;;;;;;;;;;20.60;37.60;;;;;;5072926;28;20307;-65
2023/01/12 05:02:55;;;;;;;;;;;20.50;37.60;;;;;;5072973;28;20458;-65
2023/01/12 05:05:22;;;;;;;;;;;20.50;37.60;;;;;;5075834;28;20362;-65
2023/01/12 05:10:35;;;;;;;;;;;20.50;37.60;;;;;;5064896;28;19921;-64
2023/01/12 05:13:02;;;;;;;;;;;20.50;37.60;;;;;;5076706;28;19920;-66
2023/01/12 05:15:29;;;;;;;;;;;20.50;37.60;;;;;;5076771;28;20392;-64
2023/01/12 05:17:56;;;;;;;;;;;20.50;37.60;;;;;;5076262;28;19971;-64
2023/01/12 05:20:23;;;;;;;;;;;20.50;37.60;;;;;;5076891;28;20296;-64
2023/01/12 05:22:51;;;;;;;;;;;20.50;37.60;;;;;;5057833;28;20364;-64
2023/01/12 05:25:18;;;;;;;;;;;20.50;37.60;;;;;;5075555;28;19920;-64
2023/01/12 05:27:45;;;;;;;;;;;20.50;37.60;;;;;;5076252;28;19955;-64
2023/01/12 05:30:12;;;;;;;;;;;20.50;37.60;;;;;;5076237;28;19921;-64
2023/01/12 05:32:43;;;;;;;;;;;20.50;37.60;;;;;;5075053;28;20019;-64
2023/01/12 05:35:10;;;;;;;;;;;20.50;37.60;;;;;;5076238;28;20030;-65
2023/01/12 05:37:38;;;;;;;;;;;20.50;37.50;;;;;;5055901;28;20015;-64
2023/01/12 05:40:05;;;;;;;;;;;20.50;37.40;;;;;;5056525;28;19967;-64
2023/01/12 05:45:19;;;;;;;;;;;20.50;37.30;;;;;;5067829;28;19920;-65
2023/01/12 05:47:46;;;;;;;;;;;20.50;37.30;;;;;;5057925;28;20343;-64
2023/01/12 05:50:13;;;;;;;;;;;20.40;37.30;;;;;;5087972;28;20328;-64
2023/01/12 05:52:40;;;;;;;;;;;20.50;37.30;;;;;;5096030;28;20454;-65
2023/01/12 05:55:07;;;;;;;;;;;20.40;37.20;;;;;;5074751;28;20341;-65
2023/01/12 05:57:34;;;;;;;;;;;20.50;37.30;;;;;;5075902;28;19924;-64
2023/01/12 06:00:01;;;;;;;;;;;20.50;37.30;;;;;;5074556;28;20380;-64
2023/01/12 06:02:28;;;;;;;;;;;20.50;37.30;;;;;;5075804;28;19970;-64
2023/01/12 06:04:55;;;;;;;;;;;20.50;37.30;;;;;;5081348;28;19920;-64
2023/01/12 06:07:22;;;;;;;;;;;20.50;37.30;;;;;;5075106;28;19927;-64
2023/01/12 06:09:49;;;;;;;;;;;20.50;37.30;;;;;;5074743;28;19960;-66
2023/01/12 06:15:02;;;;;;;;;;;20.60;37.30;;;;;;5074888;28;19975;-64
2023/01/12 06:17:29;;;;;;;;;;;20.60;37.90;;;;;;5074990;28;20019;-64
2023/01/12 06:19:56;;;;;;;;;;;20.60;37.30;;;;;;5069314;28;20372;-64
2023/01/12 06:22:25;;;;;;;;;;;20.60;37.30;;;;;;5066684;28;19961;-64
2023/01/12 06:24:53;;;;;;;;;;;20.60;37.40;;;;;;5070884;28;20007;-66
2023/01/12 06:27:20;;;;;;;;;;;20.70;37.50;;;;;;5069966;28;19924;-67
2023/01/12 06:29:47;;;;;;;;;;;20.70;37.40;;;;;;5070179;28;20015;-66
2023/01/12 06:32:14;;;;;;;;;;;20.80;37.50;;;;;;5068804;28;19947;-64
2023/01/12 06:34:41;;;;;;;;;;;20.80;37.50;;;;;;5069477;28;19921;-68
2023/01/12 06:37:10;;;;;;;;;;;20.80;37.40;;;;;;5074658;28;19927;-65
2023/01/12 06:39:37;;;;;;;;;;;20.90;37.40;;;;;;5072156;28;19927;-66
2023/01/12 06:44:51;;;;;;;;;;;21.00;37.30;;;;;;5068077;28;20253;-66
2023/01/12 06:47:18;;;;;;;;;;;21.00;37.30;;;;;;5065980;28;19932;-67
2023/01/12 06:49:45;;;;;;;;;;;21.10;37.30;;;;;;5066011;28;20067;-66
2023/01/12 06:52:12;;;;;;;;;;;21.20;37.20;;;;;;5064318;28;19955;-67
2023/01/12 06:54:39;;;;;;;;;;;21.20;37.20;;;;;;5051120;28;20419;-68
2023/01/12 06:57:06;;;;;;;;;;;21.20;37.60;;;;;;5069408;28;20019;-67
2023/01/12 06:59:34;;;;;;;;;;;21.30;37.80;;;;;;5066554;28;19954;-66
2023/01/12 07:02:01;;;;;;;;;;;21.30;38.00;;;;;;5070615;28;20000;-64
2023/01/12 07:04:29;;;;;;;;;;;21.40;38.20;;;;;;5064744;28;19921;-64
2023/01/12 07:06:56;;;;;;;;;;;21.40;38.30;;;;;;5062290;28;19928;-65
2023/01/12 07:09:23;;;;;;;;;;;21.50;38.40;;;;;;5062532;28;20362;-64
2023/01/12 07:11:50;;;;;;;;;;;21.50;38.40;;;;;;5064014;28;20022;-66
2023/01/12 07:14:17;;;;;;;;;;;21.60;38.50;;;;;;5066832;28;19924;-71
2023/01/12 07:16:44;;;;;;;;;;;21.60;38.50;;;;;;5063614;28;19928;-62
2023/01/12 07:19:12;;;;;;;;;;;21.60;38.40;;;;;;5063178;28;19933;-63
2023/01/12 07:21:39;;;;;;;;;;;21.70;38.50;;;;;;5065054;28;19934;-65
2023/01/12 07:24:06;;;;;;;;;;;21.70;38.70;;;;;;5066743;28;19960;-64
2023/01/12 07:26:33;;;;;;;;;;;21.70;37.90;;;;;;5061416;28;20027;-66
2023/01/12 07:29:00;;;;;;;;;;;21.80;37.70;;;;;;5062156;28;19928;-64
2023/01/12 07:31:28;;;;;;;;;;;21.80;37.50;;;;;;5063481;28;19925;-65
2023/01/12 07:33:55;;;;;;;;;;;21.90;37.40;;;;;;5059466;28;21472;-64
2023/01/12 07:36:22;;;;;;;;;;;21.90;37.40;;;;;;5064356;28;20279;-65
2023/01/12 07:38:49;;;;;;;;;;;21.90;37.30;;;;;;5063076;28;19934;-63
2023/01/12 07:44:03;;;;;;;;;;;22.00;37.80;;;;;;5067340;28;19962;-69
2023/01/12 07:46:30;;;;;;;;;;;22.00;37.90;;;;;;5063709;28;20380;-69
2023/01/12 07:48:57;;;;;;;;;;;22.00;37.90;;;;;;5061386;28;19935;-65
2023/01/12 07:51:24;;;;;;;;;;;22.00;37.90;;;;;;5059557;28;19959;-67
2023/01/12 07:53:51;;;;;;;;;;;22.10;37.90;;;;;;5065590;28;19928;-64
2023/01/12 07:56:18;;;;;;;;;;;22.10;38.00;;;;;;5065489;28;19948;-66
2023/01/12 07:58:47;;;;;;;;;;;22.10;38.00;;;;;;5063847;28;20387;-65
2023/01/12 08:01:14;;;;;;;;;;;22.10;37.90;;;;;;5064768;28;19967;-68
2023/01/12 08:03:41;;;;;;;;;;;22.10;37.90;;;;;;5065355;28;19939;-65
2023/01/12 08:06:09;;;;;;;;;;;22.20;37.90;;;;;;5061810;28;20011;-67
2023/01/12 08:08:37;;;;;;;;;;;22.20;37.90;;;;;;5063952;28;19982;-64
2023/01/12 08:11:05;;;;;;;;;;;22.20;37.70;;;;;;5062794;28;19963;-66
2023/01/12 08:13:33;;;;;;;;;;;22.20;37.60;;;;;;5060978;28;20023;-67
2023/01/12 08:16:05;;;;;;;;;;;22.30;37.70;;;;;;5063072;28;20036;-70
2023/01/12 08:18:35;;;;;;;;;;;22.30;37.80;;;;;;5044522;28;19934;-70
2023/01/12 08:21:05;;;;;;;;;;;22.30;37.90;;;;;;5051895;28;19955;-73
2023/01/12 08:23:35;;;;;;;;;;;22.40;38.10;;;;;;5069587;28;19978;-65
2023/01/12 08:26:04;;;;;;;;;;;22.40;38.30;;;;;;5063399;28;19928;-64
2023/01/12 08:28:35;;;;;;;;;;;22.50;38.00;;;;;;5067489;28;19928;-66
2023/01/12 08:31:03;;;;;;;;;;;22.50;37.70;;;;;;5067590;28;20398;-67
2023/01/12 08:33:30;;;;;;;;;;;22.50;37.60;;;;;;5066416;28;20161;-68
2023/01/12 08:35:57;;;;;;;;;;;22.60;37.70;;;;;;5067034;28;19924;-68
2023/01/12 08:38:25;;;;;;;;;;;22.60;37.70;;;;;;5065656;28;19931;-67
2023/01/12 08:46:25;;;;;;;;;;;22.70;37.70;;;;;;5073246;28;19959;-67
2023/01/12 08:48:53;;;;;;;;;;;22.80;37.80;;;;;;5050406;28;19924;-66
2023/01/12 08:51:20;;;;;;;;;;;22.80;37.70;;;;;;5071676;28;19920;-67
2023/01/12 08:53:47;;;;;;;;;;;22.80;37.60;;;;;;5070706;28;20385;-65
2023/01/12 08:56:14;;;;;;;;;;;22.90;37.60;;;;;;5068912;28;19973;-67
2023/01/12 08:58:42;;;;;;;;;;;23.00;37.40;;;;;;5072901;28;19932;-66
2023/01/12 09:01:10;;;;;;;;;;;23.00;37.10;;;;;;5072499;28;20016;-65
2023/01/12 09:03:38;;;;;;;;;;;23.00;36.90;;;;;;5070540;28;19982;-67
2023/01/12 09:06:12;;;;;;;;;;;23.00;37.30;;;;;;5071219;28;19974;-66
2023/01/12 09:08:39;;;;;;;;;;;23.10;36.80;;;;;;5069778;28;20368;-67
2023/01/12 09:11:06;;;;;;;;;;;23.10;36.70;;;;;;5067550;28;19928;-69
2023/01/12 09:13:33;;;;;;;;;;;23.10;36.50;;;;;;5070635;28;19927;-66
2023/01/12 09:16:01;;;;;;;;;;;23.10;36.50;;;;;;5070013;28;19930;-66
2023/01/12 09:18:38;;;;;;;;;;;23.20;36.50;;;;;;5065857;28;19952;-67
2023/01/12 09:21:06;;;;;;;;;;;23.20;36.50;;;;;;5068867;28;19971;-65
2023/01/12 09:23:34;;;;;;;;;;;23.20;36.50;;;;;;5067247;28;20352;-65
2023/01/12 09:26:02;;;;;;;;;;;23.30;36.40;;;;;;5067815;28;20272;-66
2023/01/12 09:28:30;;;;;;;;;;;23.30;36.40;;;;;;5063647;28;19967;-68
2023/01/12 09:31:01;;;;;;;;;;;23.30;36.30;;;;;;5070341;28;19959;-66
2023/01/12 09:33:29;;;;;;;;;;;23.30;36.20;;;;;;5067619;28;20026;-67
2023/01/12 09:35:59;;;;;;;;;;;23.40;36.30;;;;;;5069359;28;20010;-66
2023/01/12 09:38:26;;;;;;;;;;;23.40;36.30;;;;;;5067239;28;19978;-66
2023/01/12 09:40:53;;;;;;;;;;;23.40;36.20;;;;;;5065833;28;20710;-67
2023/01/12 09:46:57;;;;;;;;;;;23.40;36.00;;;;;;5069305;28;19928;-66
2023/01/12 09:49:02;;;;;;;;;;;23.50;36.00;;;;;;5064765;28;20352;-66
2023/01/12 09:51:35;;;;;;;;;;;23.50;35.90;;;;;;5068314;28;19966;-66
2023/01/12 09:54:03;;;;;;;;;;;23.50;35.90;;;;;;5067692;28;19967;-65
2023/01/12 09:56:33;;;;;;;;;;;23.50;35.80;;;;;;5068329;28;19990;-65
2023/01/12 09:59:15;;;;;;;;;;;23.50;35.70;;;;;;5050232;28;19929;-66
2023/01/12 10:01:44;;;;;;;;;;;23.60;35.70;;;;;;5067405;28;20238;-66
2023/01/12 10:04:12;;;;;;;;;;;23.60;35.60;;;;;;5066428;28;19964;-66
2023/01/12 10:06:40;;;;;;;;;;;23.60;35.50;;;;;;5067580;28;19979;-66
2023/01/12 10:09:13;;;;;;;;;;;23.60;35.40;;;;;;5067075;28;20024;-67
2023/01/12 10:11:53;;;;;;;;;;;23.70;35.40;;;;;;5068537;28;20026;-66
2023/01/12 10:14:41;;;;;;;;;;;23.70;35.40;;;;;;5067623;28;19920;-66
2023/01/12 10:17:29;;;;;;;;;;;23.70;35.40;;;;;;5069590;28;19939;-62
2023/01/12 10:20:27;;;;;;;;;;;23.70;35.40;;;;;;5066367;28;19931;-67
2023/01/12 10:23:00;;;;;;;;;;;23.70;35.60;;;;;;5070361;28;19959;-65
2023/01/12 10:25:47;;;;;;;;;;;23.70;35.50;;;;;;5051224;28;19963;-62
2023/01/12 10:28:23;;;;;;;;;;;23.70;35.60;;;;;;5054729;28;20014;-65
2023/01/12 10:30:50;;;;;;;;;;;23.70;35.70;;;;;;5062398;28;19990;-65
2023/01/12 10:33:19;;;;;;;;;;;23.80;35.70;;;;;;5066689;28;19938;-68
2023/01/12 10:35:48;;;;;;;;;;;23.80;36.00;;;;;;5068521;28;19929;-66
2023/01/12 10:38:20;;;;;;;;;;;23.80;36.20;;;;;;5069025;28;19966;-71
2023/01/12 10:41:01;;;;;;;;;;;23.80;36.40;;;;;;5068797;28;20046;-69
2023/01/12 10:43:32;;;;;;;;;;;23.80;36.40;;;;;;5070891;28;19926;-69
2023/01/12 10:46:07;;;;;;;;;;;23.80;36.40;;;;;;5064018;28;20429;-64
2023/01/12 10:48:35;;;;;;;;;;;23.90;36.30;;;;;;5066453;28;19928;-66
2023/01/12 10:51:04;;;;;;;;;;;23.90;36.30;;;;;;5065377;28;19932;-70
2023/01/12 10:53:42;;;;;;;;;;;23.90;36.30;;;;;;5067883;28;19932;-68
2023/01/12 10:56:13;;;;;;;;;;;24.00;36.30;;;;;;5066912;28;20027;-66
2023/01/12 10:58:41;;;;;;;;;;;24.00;36.10;;;;;;5062792;28;20442;-66
2023/01/12 11:01:11;;;;;;;;;;;24.00;36.10;;;;;;5064744;28;20432;-66
2023/01/12 11:03:41;;;;;;;;;;;24.00;35.90;;;;;;5063044;28;20018;-63
2023/01/12 11:06:20;;;;;;;;;;;24.00;35.80;;;;;;5067532;28;19974;-65
2023/01/12 11:08:47;;;;;;;;;;;24.10;35.90;;;;;;5069022;28;19969;-62
2023/01/12 11:11:21;;;;;;;;;;;24.00;35.90;;;;;;5068982;28;19928;-66
2023/01/12 11:13:59;;;;;;;;;;;24.00;35.90;;;;;;5068422;28;20019;-67
2023/01/12 11:16:31;;;;;;;;;;;24.00;35.80;;;;;;5068027;28;19966;-65
2023/01/12 11:19:08;;;;;;;;;;;24.00;35.80;;;;;;5068346;28;19925;-67
2023/01/12 11:21:36;;;;;;;;;;;24.00;35.80;;;;;;5067305;28;19924;-66
2023/01/12 11:24:08;;;;;;;;;;;23.90;35.70;;;;;;5046007;28;20387;-66
2023/01/12 11:26:58;;;;;;;;;;;23.90;35.70;;;;;;5069365;28;19944;-66
2023/01/12 11:29:45;;;;;;;;;;;24.00;35.80;;;;;;5068350;28;19939;-66
2023/01/12 11:32:32;;;;;;;;;;;23.90;35.70;;;;;;5055449;28;20050;-68
2023/01/12 11:35:19;;;;;;;;;;;23.90;35.70;;;;;;5064750;28;19948;-66
2023/01/12 11:37:47;;;;;;;;;;;23.90;35.70;;;;;;5065289;28;20049;-66
2023/01/12 11:40:23;;;;;;;;;;;23.90;35.70;;;;;;5067190;28;19967;-66
2023/01/12 11:45:46;;;;;;;;;;;23.90;35.70;;;;;;5067428;28;19923;-65
2023/01/12 11:48:19;;;;;;;;;;;24.00;35.70;;;;;;5067242;28;20013;-64
2023/01/12 11:50:47;;;;;;;;;;;23.90;35.60;;;;;;5065393;28;19936;-63
2023/01/12 11:53:19;;;;;;;;;;;24.00;35.70;;;;;;5065845;28;19924;-63
2023/01/12 11:56:06;;;;;;;;;;;24.00;35.70;;;;;;5063031;28;19928;-68
2023/01/12 11:58:53;;;;;;;;;;;24.00;35.90;;;;;;5066391;28;19983;-67
2023/01/12 12:01:27;;;;;;;;;;;24.00;35.60;;;;;;5062501;28;19938;-65
2023/01/12 12:04:02;;;;;;;;;;;24.00;35.60;;;;;;5063097;28;20463;-67
2023/01/12 12:06:36;;;;;;;;;;;24.00;35.40;;;;;;5061711;28;19928;-69
2023/01/12 12:09:15;;;;;;;;;;;24.10;35.60;;;;;;5063234;28;20027;-66
2023/01/12 12:11:47;;;;;;;;;;;24.10;35.80;;;;;;5061657;28;19924;-66
2023/01/12 12:14:34;;;;;;;;;;;24.10;36.00;;;;;;5061942;28;19994;-66
2023/01/12 12:17:10;;;;;;;;;;;24.10;36.10;;;;;;5066291;28;20269;-65
2023/01/12 12:19:46;;;;;;;;;;;24.10;36.20;;;;;;5063728;28;19973;-65
2023/01/12 12:22:25;;;;;;;;;;;24.10;36.20;;;;;;5064195;28;20442;-66
2023/01/12 12:25:01;;;;;;;;;;;24.10;36.30;;;;;;5063133;28;20007;-66
2023/01/12 12:27:48;;;;;;;;;;;24.10;36.30;;;;;;5063849;28;19928;-66
2023/01/12 12:30:31;;;;;;;;;;;24.10;36.40;;;;;;5062841;28;19928;-62
2023/01/12 12:33:12;;;;;;;;;;;24.10;36.60;;;;;;5059170;28;19931;-63
2023/01/12 12:35:52;;;;;;;;;;;24.10;36.60;;;;;;5056428;28;19968;-64
2023/01/12 12:38:26;;;;;;;;;;;24.10;36.60;;;;;;5052016;28;19929;-64
2023/01/12 12:47:25;;;;;;;;;;;24.10;36.20;;;;;;5056687;28;19920;-64
2023/01/12 12:49:54;;;;;;;;;;;24.10;36.30;;;;;;5051577;28;19938;-64
2023/01/12 12:52:23;;;;;;;;;;;24.10;36.30;;;;;;5054361;28;19927;-65
2023/01/12 12:54:51;;;;;;;;;;;24.10;36.30;;;;;;5050750;28;19925;-65
2023/01/12 12:57:18;;;;;;;;;;;24.10;36.30;;;;;;5054051;28;19974;-66
2023/01/12 12:59:53;;;;;;;;;;;24.10;36.30;;;;;;5048778;28;20285;-65
2023/01/12 13:02:31;;;;;;;;;;;24.10;36.40;;;;;;5056568;28;20007;-64
2023/01/12 13:05:00;;;;;;;;;;;24.10;36.40;;;;;;5045011;28;19924;-64
2023/01/12 13:07:32;;;;;;;;;;;24.10;36.50;;;;;;5050204;28;19982;-66
2023/01/12 13:10:09;;;;;;;;;;;24.10;36.60;;;;;;5053507;28;19951;-63
2023/01/12 13:12:37;;;;;;;;;;;24.10;36.70;;;;;;5052737;28;20000;-64
2023/01/12 13:15:15;;;;;;;;;;;24.10;36.60;;;;;;5050648;28;19943;-64
2023/01/12 13:17:44;;;;;;;;;;;24.20;36.60;;;;;;5056195;28;19933;-63
2023/01/12 13:20:24;;;;;;;;;;;24.20;36.60;;;;;;5050988;28;20023;-61
2023/01/12 13:22:52;;;;;;;;;;;24.10;36.40;;;;;;5053580;28;19951;-69
2023/01/12 13:25:39;;;;;;;;;;;24.20;36.40;;;;;;5056769;28;20335;-66
2023/01/12 13:28:16;;;;;;;;;;;24.10;36.30;;;;;;5060095;28;19931;-65
2023/01/12 13:30:52;;;;;;;;;;;24.10;36.20;;;;;;5059314;28;19967;-64
2023/01/12 13:33:23;;;;;;;;;;;24.10;36.20;;;;;;5053036;28;19983;-67
2023/01/12 13:35:58;;;;;;;;;;;24.10;36.10;;;;;;5058301;28;19928;-65
2023/01/12 13:38:43;;;;;;;;;;;24.10;36.20;;;;;;5055058;28;19939;-63
2023/01/12 13:44:08;;;;;;;;;;;24.10;36.10;;;;;;5052748;28;20055;-68
2023/01/12 13:46:39;;;;;;;;;;;24.10;36.20;;;;;;5050306;28;19940;-64
2023/01/12 13:49:21;;;;;;;;;;;24.10;36.20;;;;;;5044803;28;20279;-64
2023/01/12 13:51:54;;;;;;;;;;;24.10;36.30;;;;;;5055727;28;20280;-65
2023/01/12 13:54:22;;;;;;;;;;;24.10;36.40;;;;;;5054325;28;20325;-67
2023/01/12 13:56:53;;;;;;;;;;;24.20;36.50;;;;;;5054771;28;20005;-64
2023/01/12 13:59:21;;;;;;;;;;;24.20;36.70;;;;;;5036361;28;19921;-64
2023/01/12 14:01:48;;;;;;;;;;;24.10;36.50;;;;;;5047448;28;19928;-66
2023/01/12 14:04:31;;;;;;;;;;;24.20;36.40;;;;;;5059477;28;19925;-67
2023/01/12 14:07:17;;;;;;;;;;;24.20;36.50;;;;;;5057095;28;20424;-68
2023/01/12 14:10:03;;;;;;;;;;;24.20;36.50;;;;;;5052473;28;19931;-68
2023/01/12 14:12:49;;;;;;;;;;;24.20;36.50;;;;;;5051140;28;20403;-66
2023/01/12 14:18:14;;;;;;;;;;;24.20;36.50;;;;;;5050777;28;19943;-65
2023/01/12 14:20:47;;;;;;;;;;;24.20;36.50;;;;;;5052512;28;20439;-67
2023/01/12 14:23:28;;;;;;;;;;;24.20;36.50;;;;;;5052147;28;19939;-65
2023/01/12 14:26:13;;;;;;;;;;;24.20;36.50;;;;;;5056290;28;19998;-64
2023/01/12 14:28:42;;;;;;;;;;;24.20;36.50;;;;;;5052495;28;20007;-70
2023/01/12 14:31:17;;;;;;;;;;;24.20;36.50;;;;;;5056422;28;19925;-66
2023/01/12 14:33:49;;;;;;;;;;;24.20;36.50;;;;;;5042979;28;20390;-66
2023/01/12 14:36:22;;;;;;;;;;;24.30;36.40;;;;;;5066069;28;20300;-67
2023/01/12 14:38:50;;;;;;;;;;;24.20;36.40;;;;;;5066072;28;20388;-64
2023/01/12 14:46:53;;;;;;;;;;;24.20;36.40;;;;;;5049846;28;19978;-65
2023/01/12 14:49:24;;;;;;;;;;;24.20;36.50;;;;;;5064623;28;20365;-63
2023/01/12 14:51:52;;;;;;;;;;;24.20;36.50;;;;;;5062445;28;19928;-63
2023/01/12 14:54:23;;;;;;;;;;;24.20;36.50;;;;;;5066271;28;19928;-64
2023/01/12 14:56:58;;;;;;;;;;;24.20;36.50;;;;;;5066445;28;20403;-65
2023/01/12 14:59:28;;;;;;;;;;;24.20;36.50;;;;;;5063105;28;19974;-65
2023/01/12 15:02:15;;;;;;;;;;;24.20;36.60;;;;;;5062031;28;19939;-66
2023/01/12 15:05:02;;;;;;;;;;;24.20;36.60;;;;;;5065050;28;19989;-64
2023/01/12 15:07:40;;;;;;;;;;;24.20;36.60;;;;;;5063635;28;19921;-66
2023/01/12 15:10:27;;;;;;;;;;;24.20;36.50;;;;;;5063872;28;20011;-64
2023/01/12 15:12:55;;;;;;;;;;;24.20;36.50;;;;;;5063525;28;19928;-65
2023/01/12 15:15:24;;;;;;;;;;;24.20;36.50;;;;;;5062647;28;20019;-63
2023/01/12 15:26:18;;;;;;;;;;;24.10;37.00;;;;;;5063161;28;19939;-62
2023/01/12 15:28:47;;;;;;;;;;;24.10;37.10;;;;;;5064450;28;19929;-63
2023/01/12 15:31:16;;;;;;;;;;;24.10;37.20;;;;;;5046225;28;20283;-63
2023/01/12 15:33:43;;;;;;;;;;;24.00;37.30;;;;;;5059909;28;20381;-62
2023/01/12 15:36:10;;;;;;;;;;;24.00;37.40;;;;;;5065158;28;19924;-66
2023/01/12 15:38:37;;;;;;;;;;;24.00;37.50;;;;;;5059771;28;20305;-65
2023/01/12 15:41:04;;;;;;;;;;;24.00;37.60;;;;;;5062094;28;19920;-63
2023/01/12 15:43:31;;;;;;;;;;;23.90;37.60;;;;;;5065452;28;20007;-66
2023/01/12 15:45:58;;;;;;;;;;;23.90;37.70;;;;;;5066347;28;19920;-67